Thursday, August 21, 2014
00:28 UTC
  |  Log In   |  Register Free
Airport Search:

Norwood Memorial Airport
(KOWD)

FAA data valid effective July 24, 2014 until September 18, 2014 (unless otherwise noted).

 
 
 
 
 
 
 
 
 
 
 
 
 
 

Current Aviation Weather for Norwood Memorial Airport (KOWD)

The most recent METAR observation for KOWD was updated at: 1853 UTC
METAR Summary (Translated METAR)
KOWD
281853Z 19012G15KT 10SM SCT030 BKN037 BKN046 27/21 A2949 RMK AO2 SLP985 T02720211
KBOS
(12.7 nm NE from KOWD)
281754Z 19010KT 10SM SCT037 BKN046 BKN060 27/19 A2949 RMK AO2 SLP987 60009 T02670194 10283 20183 58020
TAF Summary (Translated TAF)
KBOS
(12.7 nm NE from KOWD)
202016Z 2020/2124 09008KT P6SM FEW250 FM210100 06004KT P6SM SCT250
KBED
(17.5 nm NW from KOWD)
202016Z 2020/2118 10008KT P6SM SKC FM210100 11004KT P6SM SKC FM210800 VRB03KT 3SM BR FEW250 FM211100 VRB03KT P6SM BKN200
  Airport Weather Conditions for KOWD

 Current Weather at OWD
67° F
Fair
Northeast winds at 3.5 mph
OWD NOAA Radar

Pressure: 30.03 in
Humidity: 76%
Wind: Northeast at 3.5 MPH (3 KT)
Dew Point: 59.0°F
Visibility: 10.00 mi


Airport Weather Forecast for KOWD

Translated METAR and TAF for KOWD
Translated METAR for KOWD (0022 UTC 21 August 2014)
found at http://aviationweather.gov/adds/metars/
 
METAR text: KOWD 202353Z 04003KT 10SM CLR 19/15 A3003 RMK AO2 SLP169 T01940150 10267 20194 53009
Conditions at: KOWD (NORWOOD , MA, US) observed 2353 UTC 20 August 2014
Temperature: 19.4°C (67°F)
Dewpoint: 15.0°C (59°F) [RH = 76%]
Pressure (altimeter): 30.03 inches Hg (1017.0 mb)
[Sea-level pressure: 1016.9 mb]
Winds: from the NE (40 degrees) at 3 MPH (3 knots; 1.6 m/s)
Visibility: 10 or more miles (16+ km)
Ceiling: at least 12,000 feet AGL
Clouds: sky clear below 12,000 feet AGL
Weather: no significant weather observed at this time
Translated TAF for KOWD

There is no translated TAF available for this airport

Find All Airport Services Find A Hotel Find A Rental Car Find A Golf Course Find A Restaurant $100 Hamburger



FBO's on the Field
FBO Company Facility Photos Services Transportation Aviation Fuel Prices: Prices include tax
Catering Weather Repair Courtesy Rental Type 100LL JetA JetA+ MOGAS 8087
 
FlightLevel Aviation

Currently rated 2.7 by 2 people
FS:Shell
Last Updated: Aug-20
Login to update fuel prices
SS:
Contact FlightLevel AviationMore FBO Information
 
Add another FBO Facility Photos Catering Weather Repair Courtesy Rental Type 100LL JetA JetA+ MOGAS 8087
Services Transportation Aviation Fuel Prices: Prices include tax


GlobalAir.com Airport Resource Center model-print
model-print
model-print
model-print